Topton, NC

4:33 AM EDT on April 27, 2017 (GMT -0400)
Spyder Hole | | Change Station

Elev 2264 ft 35.16 °N, 83.33 °W | Updated 31 seconds ago

Partly Cloudy
Partly Cloudy
62.1 °F
Feels Like 62.1 °F
N
0.0
Wind Variable Wind from SSE
Gusts 0.0 mph

Today
High -- | Low -- °F
--% Chance of Precip.
Yesterday
High -- | Low -- °F
Precip. -- in
Pressure 29.80 in
Visibility 10.0 miles
Clouds Scattered Clouds 4600 ft
Dew Point 56.1 °F
Humidity 81%
Rainfall 0.00 in
Snow Depth Not available.
6:47 AM 8:17 PM
New Moon, 1% visible
METAR KRHP 270810Z AUTO 26007KT 10SM SCT046 19/12 A2980 RMK AO2 T01860118
Pressure 29.80 in
Visibility 10.0 miles
Clouds Scattered Clouds 4600 ft
Dew Point 56.1 °F
Humidity 81%
Rainfall 0.00 in
Snow Depth Not available.
6:47 AM 8:17 PM
New Moon, 1% visible
METAR KRHP 270810Z AUTO 26007KT 10SM SCT046 19/12 A2980 RMK AO2 T01860118

Get Severe Weather Alerts

Thanks for signing up!

Be on the lookout for a verification email in your inbox.

You'll start receiving the daily forecast at 8 AM.

×

10-Day Weather Forecast

Almanac

Astronomy

Apr. 27, 2017 Rise Set
Actual Time
Civil Twilight
Nautical Twilight
Astronomical Twilight
Moon
Length of Visible Light
Length of Day
Tomorrow will be .
, % of the Moon is Illuminated

Today's Extremes

State Highs State Lows

Community

WunderPhotos

WunderBlog® & News

Nearby

Air Quality

  Air Quality AQ Index Pollutant
Not available.

Snow Depth

Station Depth Elevation

Earthquake Activity

City Distance Mag. Time & Date
Minimum magnitude displayed is 2.5.

Coastal Water Temperatures

Place Temperature

Stations

Nearby Weather Stations

Station Location Temp. Windchill Dew Point Humidity Wind Precip. Elev Updated Type
                   

Watches & Warnings

There are currently no watches in effect.